Time;durP1;ratioP1;P1;durP2;ratioP2;P2;SDS_P1;SDS_P2;PMS_P1;PMS_P2;Temp;Humidity;BMP_temperature;BMP_pressure;BME280_temperature;BME280_humidity;BME280_pressure;Samples;Min_cycle;Max_cycle;Signal;HPM_P1;HPM_P2
2022/06/21 00:00:11;;;;;;;2.15;0.50;;;12.50;99.90;;;;;;6245296;23;20439;-87
2022/06/21 00:02:38;;;;;;;1.88;0.40;;;12.50;99.90;;;;;;6246468;23;20035;-87
2022/06/21 00:05:05;;;;;;;4.15;0.50;;;12.40;99.90;;;;;;6245157;23;20035;-87
2022/06/21 00:07:31;;;;;;;1.90;0.50;;;12.20;99.90;;;;;;6246198;23;20012;-87
2022/06/21 00:09:58;;;;;;;5.65;0.60;;;12.30;99.90;;;;;;6244712;23;20346;-88
2022/06/21 00:12:24;;;;;;;2.60;0.60;;;12.30;99.90;;;;;;6246527;23;20016;-87
2022/06/21 00:14:50;;;;;;;2.00;0.60;;;12.20;99.90;;;;;;6247121;23;20020;-87
2022/06/21 00:17:20;;;;;;;4.10;0.40;;;12.30;99.90;;;;;;6245210;23;20023;-86
2022/06/21 00:19:46;;;;;;;0.95;0.50;;;11.60;99.90;;;;;;6244811;23;20055;-86
2022/06/21 00:22:18;;;;;;;2.80;0.50;;;12.10;99.90;;;;;;6244653;23;20020;-87
2022/06/21 00:24:44;;;;;;;0.63;0.38;;;12.00;99.90;;;;;;6244367;23;20051;-87
2022/06/21 00:27:16;;;;;;;2.30;0.50;;;12.10;99.90;;;;;;6244187;23;20082;-87
2022/06/21 00:29:43;;;;;;;1.85;0.40;;;12.00;99.90;;;;;;6245117;23;20327;-86
2022/06/21 00:32:17;;;;;;;2.92;0.50;;;12.00;99.90;;;;;;6244174;23;20020;-87
2022/06/21 00:34:45;;;;;;;2.25;0.40;;;11.90;99.90;;;;;;6219060;23;20016;-87
2022/06/21 00:37:19;;;;;;;1.98;0.50;;;11.90;99.90;;;;;;6244539;23;20146;-86
2022/06/21 00:39:45;;;;;;;1.93;0.50;;;11.40;99.90;;;;;;6244676;23;20074;-87
2022/06/21 00:42:21;;;;;;;1.05;0.30;;;11.90;99.90;;;;;;6244481;23;20484;-87
2022/06/21 00:45:22;;;;;;;3.63;1.20;;;11.90;99.90;;;;;;6246127;23;20015;-86
2022/06/21 00:47:52;;;;;;;4.43;0.77;;;11.80;99.90;;;;;;6157337;23;20471;-87
2022/06/21 00:50:36;;;;;;;2.05;0.47;;;11.80;99.90;;;;;;6157773;23;20017;-86
2022/06/21 00:53:17;;;;;;;2.88;0.40;;;11.90;99.90;;;;;;6182535;23;20526;-87
2022/06/21 00:56:22;;;;;;;0.90;0.45;;;11.70;99.90;;;;;;6157945;23;20021;-87
2022/06/21 00:58:48;;;;;;;2.78;0.50;;;11.70;99.90;;;;;;6182733;23;20013;-86
2022/06/21 01:01:26;;;;;;;2.17;0.65;;;11.70;99.90;;;;;;6157927;23;20096;-86
2022/06/21 01:03:54;;;;;;;1.92;0.45;;;11.80;99.90;;;;;;6157707;23;20421;-86
2022/06/21 01:06:27;;;;;;;1.95;0.50;;;11.70;99.90;;;;;;6157531;23;20021;-86
2022/06/21 01:08:59;;;;;;;2.95;0.40;;;11.60;99.90;;;;;;6157167;23;20079;-87
2022/06/21 01:11:34;;;;;;;1.63;0.57;;;11.60;99.90;;;;;;6132967;23;20078;-87
2022/06/21 01:14:02;;;;;;;0.95;0.40;;;11.50;99.90;;;;;;6157735;23;20032;-87
2022/06/21 01:16:32;;;;;;;0.50;0.40;;;11.90;99.90;;;;;;6133143;23;20021;-87
2022/06/21 01:19:00;;;;;;;4.03;0.60;;;12.40;99.90;;;;;;6182566;23;20013;-88
2022/06/21 01:21:28;;;;;;;1.90;0.40;;;11.40;99.90;;;;;;6157707;23;20024;-87
2022/06/21 01:24:10;;;;;;;1.42;0.50;;;11.40;99.90;;;;;;6227307;22;20016;-88
2022/06/21 01:27:07;;;;;;;4.05;0.60;;;10.50;99.90;;;;;;6245507;23;20028;-86
2022/06/21 01:29:35;;;;;;;1.48;0.70;;;11.30;99.90;;;;;;6239069;23;20039;-87
2022/06/21 01:32:04;;;;;;;2.45;0.40;;;11.20;99.90;;;;;;6244332;23;20016;-86
2022/06/21 01:34:31;;;;;;;1.13;0.40;;;11.20;99.90;;;;;;6243838;23;20027;-88
2022/06/21 01:37:12;;;;;;;2.78;0.50;;;11.20;99.90;;;;;;6245618;23;20016;-87
2022/06/21 01:39:54;;;;;;;1.15;0.70;;;11.20;99.90;;;;;;6243754;23;20012;-87
2022/06/21 01:42:27;;;;;;;4.45;0.60;;;11.20;99.90;;;;;;6243586;23;20013;-87
2022/06/21 01:44:58;;;;;;;1.05;0.50;;;11.20;99.90;;;;;;6244177;23;20107;-86
2022/06/21 01:47:29;;;;;;;2.17;0.50;;;11.20;99.90;;;;;;6243308;23;20073;-86
2022/06/21 01:50:03;;;;;;;0.75;0.40;;;11.20;99.90;;;;;;6218323;23;20024;-87
2022/06/21 01:52:31;;;;;;;1.63;0.50;;;11.60;99.90;;;;;;6218242;23;20048;-87
2022/06/21 01:55:09;;;;;;;0.98;0.43;;;11.20;99.90;;;;;;6218680;23;20015;-86
2022/06/21 01:57:38;;;;;;;1.25;0.57;;;11.10;99.90;;;;;;6217996;23;20431;-86
2022/06/21 02:00:06;;;;;;;1.95;0.63;;;11.10;99.90;;;;;;6243973;23;20020;-86
2022/06/21 02:02:41;;;;;;;2.00;0.50;;;11.00;99.90;;;;;;6245082;23;20028;-86
2022/06/21 02:05:17;;;;;;;2.85;0.50;;;11.00;99.90;;;;;;6244280;23;20389;-87
2022/06/21 02:07:50;;;;;;;2.50;0.45;;;10.90;99.90;;;;;;6243133;23;20752;-86
2022/06/21 02:10:25;;;;;;;1.95;0.43;;;10.90;99.90;;;;;;6243629;23;20015;-87
2022/06/21 02:13:08;;;;;;;1.10;0.50;;;10.90;99.90;;;;;;6244816;23;20104;-86
2022/06/21 02:15:47;;;;;;;2.17;0.50;;;10.70;99.90;;;;;;6245555;23;20020;-88
2022/06/21 02:18:15;;;;;;;2.17;0.55;;;10.80;99.90;;;;;;6245856;22;20047;-86
2022/06/21 02:20:56;;;;;;;1.92;0.70;;;11.30;99.90;;;;;;6247033;23;20095;-87
2022/06/21 02:23:23;;;;;;;4.07;0.73;;;10.70;99.90;;;;;;6246862;22;20042;-87
2022/06/21 02:25:51;;;;;;;1.52;0.60;;;10.90;99.90;;;;;;6243554;23;20465;-86
2022/06/21 02:28:18;;;;;;;2.10;0.60;;;9.80;99.90;;;;;;6243262;23;20016;-87
2022/06/21 02:30:46;;;;;;;10.10;1.30;;;10.60;99.90;;;;;;6243773;23;20391;-87
2022/06/21 02:33:23;;;;;;;1.15;0.50;;;10.60;99.90;;;;;;6243468;23;20066;-87
2022/06/21 02:35:55;;;;;;;2.33;0.52;;;10.50;99.90;;;;;;6245397;23;20020;-88
2022/06/21 02:38:44;;;;;;;1.65;0.63;;;10.00;99.90;;;;;;6245305;23;20054;-86
2022/06/21 02:41:28;;;;;;;5.88;0.70;;;10.50;99.90;;;;;;6243820;23;20380;-87
2022/06/21 02:44:06;;;;;;;2.80;1.23;;;10.50;99.90;;;;;;6245055;23;20039;-86
2022/06/21 02:46:37;;;;;;;1.00;0.70;;;10.50;99.90;;;;;;6244903;23;20031;-87
2022/06/21 02:49:23;;;;;;;2.47;0.93;;;10.50;99.90;;;;;;6243424;23;20044;-87
2022/06/21 02:51:51;;;;;;;;;;;10.40;99.90;;;;;;6218536;23;20102;-87
2022/06/21 02:54:25;;;;;;;1.77;0.70;;;11.00;99.90;;;;;;6243465;23;19916;-86
2022/06/21 02:57:01;;;;;;;3.03;0.57;;;10.40;99.90;;;;;;6242814;23;20008;-88
2022/06/21 02:59:29;;;;;;;2.75;0.65;;;11.40;99.90;;;;;;6244457;23;20017;-86
2022/06/21 03:02:00;;;;;;;0.57;0.57;;;10.40;99.90;;;;;;6243343;23;20379;-86
2022/06/21 03:04:37;;;;;;;1.13;0.47;;;10.30;99.90;;;;;;6242922;23;20074;-86
2022/06/21 03:07:05;;;;;;;1.67;0.60;;;10.40;99.90;;;;;;6217674;23;20028;-87
2022/06/21 03:09:34;;;;;;;1.35;0.73;;;10.40;99.90;;;;;;6245106;23;20043;-87
2022/06/21 03:12:02;;;;;;;1.83;0.70;;;10.30;99.90;;;;;;6245314;23;20012;-87
2022/06/21 03:14:29;;;;;;;1.60;0.52;;;10.70;99.90;;;;;;6242916;23;20435;-86
2022/06/21 03:16:59;;;;;;;2.47;0.70;;;10.30;99.90;;;;;;6243310;23;20012;-86
2022/06/21 03:19:41;;;;;;;2.38;0.60;;;10.40;99.90;;;;;;6217942;23;20024;-87
2022/06/21 03:22:21;;;;;;;1.50;0.60;;;10.40;99.90;;;;;;6245086;23;20094;-86
2022/06/21 03:24:51;;;;;;;0.80;0.60;;;9.80;99.90;;;;;;6243689;23;20074;-86
2022/06/21 03:27:31;;;;;;;3.38;0.60;;;10.40;99.90;;;;;;6243975;23;20096;-86
2022/06/21 03:29:58;;;;;;;1.92;0.60;;;10.40;99.90;;;;;;6245059;23;20017;-86
2022/06/21 03:32:26;;;;;;;1.15;0.60;;;10.70;99.90;;;;;;6244054;23;20071;-87
2022/06/21 03:34:53;;;;;;;1.50;0.68;;;10.40;99.90;;;;;;6245361;23;20382;-87
2022/06/21 03:37:19;;;;;;;1.50;0.60;;;10.50;99.90;;;;;;6245282;23;20016;-86
2022/06/21 03:42:36;;;;;;;0.88;0.40;;;10.50;99.90;;;;;;6246337;22;20098;-86
2022/06/21 03:45:09;;;;;;;0.47;0.40;;;10.50;99.90;;;;;;6245344;23;20031;-86
2022/06/21 03:47:42;;;;;;;2.20;0.50;;;9.90;99.90;;;;;;6245659;23;20019;-86
2022/06/21 03:50:31;;;;;;;1.45;0.52;;;10.40;99.90;;;;;;6246307;23;20031;-87
2022/06/21 03:53:15;;;;;;;1.05;0.47;;;10.60;99.90;;;;;;6244804;23;20013;-87
2022/06/21 03:55:53;;;;;;;1.60;0.50;;;10.70;99.90;;;;;;6246859;23;20020;-87
2022/06/21 03:58:22;;;;;;;2.92;0.60;;;11.30;99.90;;;;;;6244748;23;20058;-86
2022/06/21 04:01:05;;;;;;;0.40;0.40;;;10.80;99.90;;;;;;6244938;23;20055;-88
2022/06/21 04:03:32;;;;;;;2.50;0.70;;;10.80;99.90;;;;;;6244900;23;20390;-87
2022/06/21 04:06:06;;;;;;;1.80;0.70;;;10.90;99.90;;;;;;6246703;23;20362;-87
2022/06/21 04:08:43;;;;;;;4.15;0.88;;;10.90;99.90;;;;;;6219657;23;20051;-88
2022/06/21 04:11:40;;;;;;;1.05;0.60;;;11.00;99.90;;;;;;6246878;23;20307;-87
2022/06/21 04:14:26;;;;;;;1.23;0.55;;;11.00;99.90;;;;;;6220166;23;20020;-87
2022/06/21 04:17:12;;;;;;;2.28;1.40;;;11.10;99.90;;;;;;6244618;23;20020;-87
2022/06/21 04:19:50;;;;;;;0.68;0.50;;;11.10;99.90;;;;;;6244831;23;20031;-87
2022/06/21 04:22:26;;;;;;;1.50;0.50;;;11.20;99.90;;;;;;6247944;23;20016;-87
2022/06/21 04:25:00;;;;;;;0.50;0.38;;;11.30;99.90;;;;;;6247647;23;20086;-87
2022/06/21 04:27:33;;;;;;;0.95;0.55;;;11.40;99.90;;;;;;6244322;23;20016;-88
2022/06/21 04:30:08;;;;;;;1.27;0.50;;;11.40;99.90;;;;;;6219149;23;20091;-87
2022/06/21 04:32:40;;;;;;;0.50;0.50;;;11.50;99.90;;;;;;6244087;23;20026;-87
2022/06/21 04:35:12;;;;;;;0.65;0.50;;;11.50;99.90;;;;;;6244480;23;20383;-87
2022/06/21 04:37:53;;;;;;;0.50;0.50;;;12.00;99.90;;;;;;6246532;23;20051;-87
2022/06/21 04:40:29;;;;;;;1.63;0.40;;;11.60;99.90;;;;;;6244467;23;20012;-87
2022/06/21 04:43:00;;;;;;;1.65;0.50;;;11.80;99.90;;;;;;6244561;23;20016;-86
2022/06/21 04:45:51;;;;;;;0.40;0.40;;;12.40;99.90;;;;;;6218966;23;20020;-86
2022/06/21 04:48:43;;;;;;;1.20;0.50;;;11.90;99.90;;;;;;6218321;23;20024;-88
2022/06/21 04:51:12;;;;;;;0.60;0.60;;;11.90;99.90;;;;;;6244586;23;20012;-87
2022/06/21 04:54:00;;;;;;;1.00;0.63;;;12.00;99.90;;;;;;6246357;23;20016;-87
2022/06/21 04:56:42;;;;;;;1.63;0.50;;;11.90;99.90;;;;;;6245821;23;20046;-88
2022/06/21 04:59:18;;;;;;;0.90;0.43;;;12.10;99.90;;;;;;6218530;23;20012;-87
2022/06/21 05:01:44;;;;;;;2.63;0.52;;;12.20;99.90;;;;;;6245994;23;20016;-86
2022/06/21 05:04:36;;;;;;;1.73;0.60;;;12.20;99.90;;;;;;6244417;23;20458;-87
2022/06/21 05:07:13;;;;;;;2.70;0.75;;;12.30;99.90;;;;;;6213363;23;20036;-87
2022/06/21 05:09:41;;;;;;;1.52;0.50;;;12.30;99.90;;;;;;6214127;23;20359;-87
2022/06/21 05:12:25;;;;;;;2.08;0.90;;;12.50;99.90;;;;;;6214281;23;20021;-87
2022/06/21 05:14:56;;;;;;;2.17;0.60;;;12.50;99.90;;;;;;6215576;23;20083;-87
2022/06/21 05:17:23;;;;;;;1.27;0.50;;;12.70;99.90;;;;;;6213816;23;20025;-87
2022/06/21 05:19:54;;;;;;;2.35;0.80;;;12.80;99.90;;;;;;6215766;23;20035;-87
2022/06/21 05:22:27;;;;;;;4.43;0.82;;;12.90;99.90;;;;;;6215430;23;20105;-87
2022/06/21 05:24:55;;;;;;;1.27;0.60;;;13.00;99.90;;;;;;6213997;23;20114;-87
2022/06/21 05:27:38;;;;;;;3.22;0.73;;;13.50;99.90;;;;;;6213295;23;20024;-86
2022/06/21 05:30:26;;;;;;;1.10;0.68;;;13.30;99.90;;;;;;6214535;23;20027;-88
2022/06/21 05:32:58;;;;;;;1.30;0.65;;;13.30;99.90;;;;;;6214225;23;20020;-87
2022/06/21 05:35:27;;;;;;;1.08;0.77;;;13.30;99.90;;;;;;6213655;23;20024;-87
2022/06/21 05:38:20;;;;;;;3.92;0.60;;;13.60;99.90;;;;;;6214210;23;20023;-88
2022/06/21 05:41:09;;;;;;;2.38;1.05;;;13.60;99.90;;;;;;6209858;23;20028;-88
2022/06/21 05:43:48;;;;;;;1.50;0.70;;;13.80;99.90;;;;;;6188831;23;20321;-88
2022/06/21 05:46:21;;;;;;;1.73;0.68;;;13.60;99.90;;;;;;6215535;23;20020;-87
2022/06/21 05:48:47;;;;;;;3.47;0.85;;;13.90;99.90;;;;;;6216801;23;20052;-88
2022/06/21 05:51:22;;;;;;;1.50;0.70;;;14.00;99.90;;;;;;6217738;23;20083;-86
2022/06/21 05:53:52;;;;;;;3.27;1.00;;;14.30;99.90;;;;;;6216722;23;20016;-87
2022/06/21 05:56:21;;;;;;;1.50;1.05;;;14.10;99.90;;;;;;6213833;23;20020;-86
2022/06/21 05:58:53;;;;;;;2.88;1.00;;;14.20;99.90;;;;;;6219024;23;20008;-86
2022/06/21 06:01:37;;;;;;;1.98;0.90;;;14.30;99.90;;;;;;6217943;23;20032;-87
2022/06/21 06:04:21;;;;;;;3.13;0.65;;;14.50;99.90;;;;;;6214150;23;20012;-86
2022/06/21 06:06:47;;;;;;;0.95;0.60;;;14.50;99.90;;;;;;6213548;23;20028;-85
2022/06/21 06:09:25;;;;;;;0.80;0.50;;;14.70;99.90;;;;;;6213605;23;20020;-87
2022/06/21 06:12:06;;;;;;;3.83;0.65;;;14.90;99.90;;;;;;6213657;23;20099;-86
2022/06/21 06:14:44;;;;;;;1.70;0.80;;;14.90;99.90;;;;;;6213540;23;20020;-87
2022/06/21 06:17:26;;;;;;;3.92;0.68;;;15.10;99.90;;;;;;6215440;23;20082;-86
2022/06/21 06:23:49;;;;;;;4.07;1.13;;;15.50;99.90;;;;;;6215322;23;20067;-88
2022/06/21 06:26:21;;;;;;;4.75;0.82;;;15.60;99.90;;;;;;6215271;23;20021;-90
2022/06/21 06:28:58;;;;;;;2.15;0.68;;;15.80;99.90;;;;;;6213497;23;20031;-90
2022/06/21 06:31:35;;;;;;;1.10;0.70;;;16.10;99.90;;;;;;6215463;23;20068;-89
2022/06/21 06:34:09;;;;;;;4.32;0.80;;;16.50;99.90;;;;;;6215566;23;20016;-86
2022/06/21 06:36:54;;;;;;;2.03;0.70;;;16.30;99.90;;;;;;6213383;23;20048;-87
2022/06/21 06:39:33;;;;;;;1.30;0.85;;;16.40;99.90;;;;;;6214620;23;20013;-86
2022/06/21 06:42:07;;;;;;;2.35;0.85;;;16.30;99.90;;;;;;6214589;23;20412;-86
2022/06/21 06:44:38;;;;;;;2.20;0.90;;;16.30;99.90;;;;;;6213364;23;20056;-87
2022/06/21 06:47:11;;;;;;;2.95;0.93;;;16.40;99.90;;;;;;6213212;23;20451;-86
2022/06/21 06:49:54;;;;;;;2.88;0.73;;;16.50;99.90;;;;;;6213188;23;20398;-86
2022/06/21 06:52:19;;;;;;;1.10;0.60;;;16.60;99.90;;;;;;6213587;23;20055;-87
2022/06/21 06:55:22;;;;;;;2.42;0.95;;;16.70;99.90;;;;;;6213420;23;20021;-86
2022/06/21 06:58:09;;;;;;;4.20;1.00;;;16.90;99.90;;;;;;6188445;23;20025;-87
2022/06/21 07:00:39;;;;;;;5.88;0.88;;;17.10;99.90;;;;;;6215331;23;20070;-88
2022/06/21 07:03:47;;;;;;;2.53;0.80;;;17.10;99.90;;;;;;6213344;23;20079;-92
2022/06/21 07:06:37;;;;;;;1.20;0.70;;;17.20;99.90;;;;;;6128705;23;20050;-91
2022/06/21 07:09:52;;;;;;;1.92;0.52;;;17.10;99.90;;;;;;6129675;23;20042;-88
2022/06/21 07:12:27;;;;;;;3.97;0.90;;;17.10;99.90;;;;;;6149255;23;20056;-88
2022/06/21 07:14:54;;;;;;;2.85;0.80;;;17.10;99.90;;;;;;6154958;23;20017;-88
2022/06/21 07:17:47;;;;;;;1.92;0.73;;;17.30;99.90;;;;;;6129569;23;20086;-86
2022/06/21 07:20:21;;;;;;;2.45;0.90;;;17.50;99.90;;;;;;6129173;23;20028;-85
2022/06/21 07:22:46;;;;;;;1.80;0.82;;;17.80;99.90;;;;;;6129239;23;20329;-85
2022/06/21 07:25:23;;;;;;;2.50;0.90;;;17.90;99.90;;;;;;6153751;23;20121;-85
2022/06/21 07:27:55;;;;;;;0.75;0.40;;;17.90;99.90;;;;;;6129150;23;20021;-86
2022/06/21 07:30:28;;;;;;;4.70;0.70;;;17.70;99.90;;;;;;6129309;23;20021;-87
2022/06/21 07:33:04;;;;;;;2.15;0.63;;;17.60;99.90;;;;;;6129022;23;20013;-86
2022/06/21 07:35:48;;;;;;;2.30;0.60;;;17.60;99.90;;;;;;6153834;23;20017;-91
2022/06/21 07:38:20;;;;;;;2.30;0.73;;;17.80;99.90;;;;;;6128751;23;20021;-86
2022/06/21 07:40:52;;;;;;;2.00;0.80;;;17.80;99.90;;;;;;6129465;23;20014;-88
2022/06/21 07:43:41;;;;;;;2.88;0.90;;;18.00;99.90;;;;;;6171181;23;20091;-86
2022/06/21 07:46:09;;;;;;;2.10;0.60;;;18.20;99.90;;;;;;6216300;23;20465;-86
2022/06/21 07:48:43;;;;;;;1.60;0.70;;;18.50;99.90;;;;;;6216008;23;20028;-86
2022/06/21 07:51:20;;;;;;;1.60;0.57;;;18.70;99.90;;;;;;6216663;23;20490;-86
2022/06/21 07:53:54;;;;;;;2.47;0.90;;;18.70;99.90;;;;;;6214843;23;20017;-86
2022/06/21 07:56:28;;;;;;;2.08;0.63;;;18.90;99.90;;;;;;6216407;23;20024;-86
2022/06/21 07:59:32;;;;;;;2.42;0.70;;;18.80;99.90;;;;;;6214821;23;20052;-87
2022/06/21 08:08:42;;;;;;;2.10;1.00;;;19.50;99.90;;;;;;6153341;23;20025;-86
2022/06/21 08:11:31;;;;;;;1.40;0.70;;;19.70;99.90;;;;;;6104743;23;20475;-87
2022/06/21 08:13:57;;;;;;;4.28;0.70;;;19.60;99.90;;;;;;6128375;23;20017;-85
2022/06/21 08:16:27;;;;;;;2.97;0.60;;;19.70;99.90;;;;;;6103989;23;20384;-87
2022/06/21 08:19:12;;;;;;;1.88;0.60;;;19.90;99.90;;;;;;6128740;23;20092;-85
2022/06/21 08:21:48;;;;;;;1.88;0.57;;;20.00;99.90;;;;;;6153958;23;20024;-86
2022/06/21 08:24:31;;;;;;;3.30;1.08;;;20.20;99.90;;;;;;6129725;23;20029;-86
2022/06/21 08:27:27;;;;;;;2.10;0.60;;;20.40;99.90;;;;;;6135364;23;20026;-86
2022/06/21 08:29:58;;;;;;;2.20;0.60;;;20.50;99.90;;;;;;6104603;23;20017;-85
2022/06/21 08:32:47;;;;;;;2.78;0.60;;;20.40;99.90;;;;;;6153973;23;20021;-86
2022/06/21 08:35:32;;;;;;;2.17;0.60;;;20.30;99.90;;;;;;6153980;23;20088;-86
2022/06/21 08:38:19;;;;;;;1.38;0.65;;;20.20;99.90;;;;;;6153831;23;20318;-85
2022/06/21 08:44:33;;;;;;;1.85;0.60;;;20.30;99.90;;;;;;6158550;23;20027;-86
2022/06/21 08:47:26;;;;;;;1.65;0.80;;;20.70;99.90;;;;;;6215575;23;20021;-86
2022/06/21 08:50:06;;;;;;;1.95;0.60;;;21.10;99.90;;;;;;6215497;23;20025;-86
2022/06/21 08:52:53;;;;;;;2.33;0.70;;;21.30;99.90;;;;;;6214275;23;20388;-86
2022/06/21 08:55:55;;;;;;;3.50;1.17;;;21.40;99.90;;;;;;6214321;23;20444;-86
2022/06/21 08:58:26;;;;;;;3.53;0.77;;;21.90;99.90;;;;;;6214388;23;20023;-86
2022/06/21 09:01:29;;;;;;;1.17;0.60;;;21.60;99.90;;;;;;6214484;23;20021;-86
2022/06/21 09:04:22;;;;;;;4.38;0.80;;;21.20;99.90;;;;;;6214046;23;20021;-86
2022/06/21 09:07:02;;;;;;;2.65;0.77;;;21.20;99.90;;;;;;6213988;23;20096;-86
2022/06/21 09:09:52;;;;;;;2.13;0.50;;;21.10;99.90;;;;;;6215777;23;20020;-85
2022/06/21 09:12:35;;;;;;;1.83;0.60;;;21.20;99.90;;;;;;6215486;23;20021;-87
2022/06/21 09:15:15;;;;;;;2.47;0.50;;;21.40;99.90;;;;;;6216001;23;20025;-86
2022/06/21 09:18:00;;;;;;;2.50;0.73;;;21.60;99.90;;;;;;6214302;23;20009;-86
2022/06/21 09:20:47;;;;;;;1.88;1.15;;;21.90;99.90;;;;;;6213517;23;20517;-86
2022/06/21 09:23:51;;;;;;;1.50;0.70;;;22.10;99.40;;;;;;6215680;23;20020;-86
2022/06/21 09:26:17;;;;;;;3.10;0.73;;;22.40;98.40;;;;;;6215227;23;20027;-86
2022/06/21 09:28:43;;;;;;;5.97;0.88;;;22.40;99.90;;;;;;6215381;23;20012;-86
2022/06/21 09:31:21;;;;;;;3.20;0.60;;;22.30;99.90;;;;;;6213517;23;20039;-87
2022/06/21 09:33:57;;;;;;;1.13;0.60;;;22.00;99.90;;;;;;6214082;23;20510;-86
2022/06/21 09:36:45;;;;;;;2.10;0.90;;;21.80;99.10;;;;;;6213662;23;20024;-86
2022/06/21 09:39:30;;;;;;;2.72;0.63;;;21.70;99.90;;;;;;6215635;23;20047;-86
2022/06/21 09:42:07;;;;;;;2.10;0.57;;;21.90;99.50;;;;;;6213532;23;20099;-86
2022/06/21 09:44:54;;;;;;;1.95;0.60;;;22.10;98.70;;;;;;6215568;23;20013;-86
2022/06/21 09:47:49;;;;;;;1.70;0.50;;;22.20;96.90;;;;;;6215355;23;20027;-86
2022/06/21 09:50:24;;;;;;;0.60;0.40;;;22.30;98.80;;;;;;6213390;23;20016;-86
2022/06/21 09:53:13;;;;;;;2.03;0.60;;;22.30;99.20;;;;;;6215548;23;20335;-87
2022/06/21 09:56:32;;;;;;;1.30;0.57;;;22.20;99.50;;;;;;6213420;23;20036;-90
2022/06/21 09:59:21;;;;;;;2.58;0.50;;;22.30;99.90;;;;;;6213218;23;20021;-88
2022/06/21 10:01:53;;;;;;;2.42;0.93;;;22.30;98.20;;;;;;6213298;23;20020;-86
2022/06/21 10:04:25;;;;;;;1.08;0.60;;;22.10;98.70;;;;;;6214956;23;20013;-86
2022/06/21 10:07:12;;;;;;;1.83;0.68;;;22.10;97.60;;;;;;6213507;23;20050;-86
2022/06/21 10:09:44;;;;;;;2.67;0.63;;;22.00;99.10;;;;;;6213289;23;20020;-85
2022/06/21 10:12:39;;;;;;;3.58;1.23;;;22.00;99.10;;;;;;6213165;23;20114;-86
2022/06/21 10:15:30;;;;;;;2.73;0.90;;;22.40;97.70;;;;;;6212940;23;20079;-85
2022/06/21 10:18:18;;;;;;;1.88;0.95;;;21.90;97.10;;;;;;6212823;23;20409;-88
2022/06/21 10:21:19;;;;;;;1.17;0.60;;;21.90;98.40;;;;;;6182082;23;20017;-89
2022/06/21 10:24:12;;;;;;;1.70;0.40;;;22.20;97.60;;;;;;6127655;23;20115;-86
2022/06/21 10:26:57;;;;;;;3.05;0.60;;;22.50;97.50;;;;;;6127220;23;20024;-86
2022/06/21 10:29:53;;;;;;;2.55;0.50;;;22.80;95.80;;;;;;6127479;23;20044;-85
2022/06/21 10:32:31;;;;;;;1.70;0.40;;;23.00;96.90;;;;;;6131680;23;20036;-86
2022/06/21 10:35:06;;;;;;;4.00;0.90;;;23.30;96.70;;;;;;6155098;23;20068;-84
2022/06/21 10:37:32;;;;;;;;;;;23.60;95.30;;;;;;6154363;23;20033;-85
2022/06/21 10:40:03;;;;;;;2.50;0.70;;;23.50;95.40;;;;;;6155414;23;20242;-85
2022/06/21 10:43:06;;;;;;;1.10;0.47;;;23.60;95.30;;;;;;6153285;23;20024;-87
2022/06/21 10:45:50;;;;;;;0.70;0.43;;;23.50;95.10;;;;;;6154732;23;20120;-86
2022/06/21 10:52:17;;;;;;;2.15;0.40;;;23.90;95.20;;;;;;6168825;23;20441;-89
2022/06/21 10:55:04;;;;;;;2.05;0.43;;;24.30;93.80;;;;;;6183429;23;20025;-87
2022/06/21 10:58:03;;;;;;;1.45;0.40;;;24.50;91.80;;;;;;6182654;23;20317;-87
2022/06/21 11:03:53;;;;;;;2.00;0.60;;;25.00;91.90;;;;;;6092998;23;20453;-88
2022/06/21 11:06:39;;;;;;;2.15;0.40;;;25.00;92.10;;;;;;6068989;23;20400;-86
2022/06/21 11:09:27;;;;;;;1.17;0.50;;;24.90;93.80;;;;;;6069213;23;20025;-86
2022/06/21 11:15:28;;;;;;;1.88;0.50;;;24.60;90.00;;;;;;6068955;23;20524;-86
2022/06/21 11:18:09;;;;;;;2.38;0.35;;;24.80;90.20;;;;;;6069434;23;20019;-85
2022/06/21 11:21:07;;;;;;;1.25;0.50;;;24.90;90.10;;;;;;6069194;23;20447;-86
2022/06/21 11:23:55;;;;;;;1.75;0.30;;;25.30;90.70;;;;;;5956224;24;20037;-86
2022/06/21 11:26:41;;;;;;;1.52;0.40;;;25.40;90.60;;;;;;5956373;24;20364;-86
2022/06/21 11:29:30;;;;;;;3.65;0.50;;;25.50;89.40;;;;;;5956296;24;20020;-87
2022/06/21 11:32:13;;;;;;;1.67;0.40;;;25.60;84.80;;;;;;5924106;24;20402;-87
2022/06/21 11:34:46;;;;;;;0.80;0.30;;;25.60;88.70;;;;;;5924216;24;20025;-87
2022/06/21 11:37:45;;;;;;;1.15;0.38;;;25.80;87.80;;;;;;5948147;23;20090;-86
2022/06/21 11:40:24;;;;;;;3.50;0.40;;;26.00;86.10;;;;;;5928594;23;20028;-88
2022/06/21 11:42:53;;;;;;;2.00;0.30;;;26.00;85.90;;;;;;5951610;24;20448;-86
2022/06/21 11:45:42;;;;;;;2.15;0.52;;;26.20;83.60;;;;;;5928680;24;20096;-87
2022/06/21 11:48:33;;;;;;;0.80;0.32;;;25.60;81.90;;;;;;5928727;24;20024;-86
2022/06/21 11:51:10;;;;;;;2.17;0.30;;;25.90;82.10;;;;;;5951461;24;20020;-86
2022/06/21 11:53:58;;;;;;;1.25;0.40;;;25.90;83.60;;;;;;5929481;24;20017;-86
2022/06/21 11:56:59;;;;;;;1.10;0.40;;;26.00;85.60;;;;;;5953248;24;20052;-88
2022/06/21 11:59:37;;;;;;;0.88;0.30;;;26.00;79.00;;;;;;5953854;24;20020;-86
2022/06/21 12:02:18;;;;;;;3.80;0.40;;;25.80;80.00;;;;;;5957826;24;20020;-86
2022/06/21 12:04:50;;;;;;;0.93;0.30;;;26.10;82.70;;;;;;5957688;24;20108;-87
2022/06/21 12:07:33;;;;;;;0.65;0.30;;;26.20;81.90;;;;;;5957857;24;20091;-86
2022/06/21 12:10:17;;;;;;;2.45;0.40;;;26.40;77.70;;;;;;6034989;23;20436;-88
2022/06/21 12:13:00;;;;;;;2.35;0.30;;;26.70;80.10;;;;;;6042258;23;20097;-86
2022/06/21 12:15:35;;;;;;;1.80;0.30;;;26.80;77.60;;;;;;6066188;23;20061;-87
2022/06/21 12:18:08;;;;;;;0.88;0.20;;;26.80;74.10;;;;;;6181137;23;20036;-87
2022/06/21 12:20:54;;;;;;;3.58;0.45;;;27.00;76.00;;;;;;6184244;23;20375;-86
2022/06/21 12:23:35;;;;;;;3.50;0.38;;;26.90;72.30;;;;;;6159572;23;20443;-88
2022/06/21 12:26:02;;;;;;;0.70;0.40;;;26.80;76.20;;;;;;6159381;23;20025;-87
2022/06/21 12:28:35;;;;;;;1.40;0.30;;;26.90;78.30;;;;;;6185804;23;20467;-87
2022/06/21 12:31:11;;;;;;;0.82;0.20;;;27.00;78.40;;;;;;6186131;23;20502;-87
2022/06/21 12:33:39;;;;;;;1.92;0.60;;;26.90;73.80;;;;;;6186220;23;20015;-88
2022/06/21 12:36:13;;;;;;;1.60;0.30;;;27.20;72.90;;;;;;6184501;23;20096;-88
2022/06/21 12:38:50;;;;;;;2.17;0.28;;;27.10;74.60;;;;;;6184575;23;20408;-86
2022/06/21 12:41:40;;;;;;;1.55;0.35;;;26.90;72.70;;;;;;6184241;23;20024;-88
2022/06/21 12:44:24;;;;;;;2.95;0.35;;;27.00;73.00;;;;;;6159256;23;20020;-88
2022/06/21 12:47:19;;;;;;;0.88;0.30;;;26.60;72.70;;;;;;6184633;23;20395;-87
2022/06/21 12:50:09;;;;;;;0.52;0.30;;;26.80;73.50;;;;;;6185712;23;20036;-87
2022/06/21 12:53:01;;;;;;;1.25;0.20;;;27.10;66.60;;;;;;6183739;23;20027;-87
2022/06/21 12:55:39;;;;;;;1.77;0.30;;;26.80;71.00;;;;;;6186032;23;20506;-87
2022/06/21 12:58:39;;;;;;;1.00;0.40;;;27.10;73.30;;;;;;6185605;23;20045;-87
2022/06/21 13:01:13;;;;;;;2.13;0.52;;;27.30;71.30;;;;;;6094269;23;20476;-87
2022/06/21 13:04:14;;;;;;;3.85;0.43;;;27.10;72.00;;;;;;6070423;23;20126;-87
2022/06/21 13:06:53;;;;;;;0.82;0.20;;;27.60;70.70;;;;;;5980465;24;20016;-87
2022/06/21 13:09:39;;;;;;;1.90;0.30;;;27.70;70.80;;;;;;5957033;24;20028;-86
2022/06/21 13:12:33;;;;;;;0.70;0.20;;;27.60;66.60;;;;;;5957249;24;20471;-86
2022/06/21 13:15:10;;;;;;;0.75;0.30;;;27.10;69.70;;;;;;5980443;24;20393;-86
2022/06/21 13:17:57;;;;;;;0.75;0.28;;;26.60;70.70;;;;;;5957179;24;20041;-87
2022/06/21 13:20:53;;;;;;;0.75;0.40;;;26.80;70.30;;;;;;5956777;24;20020;-88
2022/06/21 13:23:24;;;;;;;;;;;27.00;74.20;;;;;;5981008;24;20020;-86
2022/06/21 13:25:59;;;;;;;1.00;0.35;;;27.60;70.90;;;;;;5956964;24;19919;-88
2022/06/21 13:28:45;;;;;;;2.53;0.30;;;26.90;69.20;;;;;;5957088;24;20020;-87
2022/06/21 13:31:47;;;;;;;2.78;0.38;;;27.00;68.10;;;;;;5957020;24;20035;-88
2022/06/21 13:34:39;;;;;;;0.82;0.30;;;27.30;71.50;;;;;;5957074;24;20020;-87
2022/06/21 13:37:17;;;;;;;1.23;0.30;;;27.40;69.10;;;;;;5993173;23;20346;-87
2022/06/21 13:39:46;;;;;;;1.70;0.40;;;27.30;69.70;;;;;;6094075;23;20019;-86
2022/06/21 13:45:07;;;;;;;1.35;0.20;;;26.50;68.20;;;;;;6183423;23;20048;-87
2022/06/21 13:47:41;;;;;;;1.60;0.22;;;26.20;68.90;;;;;;6183633;23;20021;-88
2022/06/21 13:50:09;;;;;;;1.90;0.30;;;26.10;71.40;;;;;;6183584;23;20021;-87
2022/06/21 13:52:53;;;;;;;1.52;0.40;;;26.00;72.90;;;;;;6183352;23;20052;-86
2022/06/21 13:55:32;;;;;;;1.30;0.28;;;26.00;71.40;;;;;;6185018;23;20055;-87
2022/06/21 13:58:17;;;;;;;1.10;0.30;;;26.00;69.90;;;;;;6185185;23;20022;-86
2022/06/21 14:00:55;;;;;;;1.35;0.40;;;25.70;70.80;;;;;;6185296;23;20049;-87
2022/06/21 14:03:49;;;;;;;0.60;0.20;;;25.70;71.90;;;;;;6183597;23;20028;-87
2022/06/21 14:06:24;;;;;;;0.85;0.20;;;25.80;71.60;;;;;;6183573;23;20024;-86
2022/06/21 14:09:12;;;;;;;1.10;0.30;;;25.60;73.80;;;;;;6183361;23;20021;-86
2022/06/21 14:11:52;;;;;;;0.88;0.20;;;25.70;73.60;;;;;;6183495;23;20345;-86
2022/06/21 14:14:27;;;;;;;0.73;0.20;;;25.90;73.60;;;;;;6183374;23;20021;-88
2022/06/21 14:17:10;;;;;;;0.98;0.35;;;26.10;72.10;;;;;;6183550;23;20511;-87